Time;durP1;ratioP1;P1;durP2;ratioP2;P2;SDS_P1;SDS_P2;PMS_P1;PMS_P2;Temp;Humidity;BMP_temperature;BMP_pressure;BME280_temperature;BME280_humidity;BME280_pressure;Samples;Min_cycle;Max_cycle;Signal;HPM_P1;HPM_P2
2021/12/21 00:01:58;;;;;;;4.90;2.25;;;;;;;0.30;100.00;100692.81;5137515;27;20050;-78
2021/12/21 00:04:26;;;;;;;5.30;2.38;;;;;;;0.24;100.00;100688.50;5136900;27;20050;-80
2021/12/21 00:06:54;;;;;;;3.40;2.10;;;;;;;0.09;100.00;100682.53;5137357;27;20422;-83
2021/12/21 00:09:22;;;;;;;4.07;2.30;;;;;;;0.00;100.00;100694.00;5136934;27;20042;-83
2021/12/21 00:11:51;;;;;;;4.90;2.40;;;;;;;0.17;100.00;100691.19;5136977;27;20118;-86
2021/12/21 00:14:27;;;;;;;4.18;2.03;;;;;;;0.08;100.00;100696.53;5136886;27;20043;-85
2021/12/21 00:20:04;;;;;;;4.68;2.03;;;;;;;0.06;100.00;100708.78;5133523;27;20381;-83
2021/12/21 00:25:27;;;;;;;4.28;1.90;;;;;;;0.06;100.00;100709.66;5123304;27;20055;-85
2021/12/21 00:27:55;;;;;;;3.97;1.83;;;;;;;-0.04;100.00;100724.63;5136739;27;20047;-85
2021/12/21 00:30:25;;;;;;;4.50;1.90;;;;;;;0.14;100.00;100722.72;5136327;27;20043;-85
2021/12/21 00:32:53;;;;;;;4.38;2.00;;;;;;;0.02;100.00;100728.94;5136886;27;20043;-85
2021/12/21 00:35:21;;;;;;;6.15;2.42;;;;;;;0.00;100.00;100741.22;5135364;27;20039;-84
2021/12/21 00:37:50;;;;;;;2.95;1.38;;;;;;;0.08;100.00;100735.88;5136361;27;20130;-83
2021/12/21 00:40:18;;;;;;;4.00;1.98;;;;;;;0.07;100.00;100747.25;5136138;27;20040;-84
2021/12/21 00:42:46;;;;;;;3.17;1.75;;;;;;;0.07;100.00;100760.38;5136697;27;20387;-82
2021/12/21 00:45:14;;;;;;;3.42;1.90;;;;;;;0.06;100.00;100761.25;5136228;27;20071;-80
2021/12/21 00:47:47;;;;;;;4.55;1.90;;;;;;;-0.05;100.00;100767.47;5136650;27;20040;-78
2021/12/21 00:50:17;;;;;;;4.22;2.00;;;;;;;-0.16;100.00;100766.69;5136204;27;20047;-77
2021/12/21 00:52:47;;;;;;;3.85;2.22;;;;;;;-0.16;100.00;100766.69;5136154;27;20107;-79
2021/12/21 00:55:16;;;;;;;3.67;2.10;;;;;;;-0.18;100.00;100765.84;5140716;27;20039;-79
2021/12/21 00:57:44;;;;;;;5.00;1.95;;;;;;;-0.25;100.00;100790.38;5136474;27;20074;-79
2021/12/21 01:00:15;;;;;;;4.78;1.98;;;;;;;-0.17;100.00;100795.56;5135954;27;20376;-78
2021/12/21 01:02:46;;;;;;;3.85;1.90;;;;;;;-0.13;100.00;100802.50;5136146;27;20092;-76
2021/12/21 01:05:21;;;;;;;5.40;1.85;;;;;;;-0.11;100.00;100809.47;5135733;27;20154;-79
2021/12/21 01:07:52;;;;;;;3.22;1.70;;;;;;;-0.14;100.00;100806.88;5136579;27;20067;-77
2021/12/21 01:13:15;;;;;;;4.25;2.17;;;;;;;-0.10;100.00;100812.97;5135879;27;20043;-87
2021/12/21 01:16:04;;;;;;;4.75;2.05;;;;;;;-0.24;100.00;100810.47;5136150;27;20043;-87
2021/12/21 01:18:39;;;;;;;4.40;2.30;;;;;;;-0.16;100.00;100813.03;5136299;27;20088;-87
2021/12/21 01:21:13;;;;;;;4.50;2.10;;;;;;;-0.19;100.00;100811.31;5139282;27;20404;-85
2021/12/21 01:24:16;;;;;;;5.43;2.13;;;;;;;-0.30;100.00;100811.34;5135936;27;20128;-78
2021/12/21 01:26:58;;;;;;;5.40;1.97;;;;;;;-0.28;100.00;100810.50;5136630;27;20043;-78
2021/12/21 01:29:34;;;;;;;3.67;2.10;;;;;;;-0.25;99.89;100805.22;5135347;27;20092;-77
2021/12/21 01:32:08;;;;;;;4.95;2.17;;;;;;;-0.30;100.00;100813.09;5135331;27;20400;-78
2021/12/21 01:34:50;;;;;;;4.20;2.00;;;;;;;-0.25;99.02;100818.34;5135084;27;20420;-79
2021/12/21 01:37:24;;;;;;;5.03;2.30;;;;;;;-0.28;99.48;100811.38;5135405;27;20495;-79
2021/12/21 01:43:04;;;;;;;4.38;1.90;;;;;;;-0.42;100.00;100802.72;5133334;27;20130;-79
2021/12/21 01:51:09;;;;;;;3.58;1.88;;;;;;;-0.41;99.03;100822.81;5135242;27;20039;-77
2021/12/21 01:53:38;;;;;;;4.25;2.00;;;;;;;-0.46;99.36;100828.09;5134929;27;20047;-79
2021/12/21 01:56:08;;;;;;;3.90;1.80;;;;;;;-0.48;99.62;100824.59;5135191;27;20047;-80
2021/12/21 01:58:37;;;;;;;4.60;1.90;;;;;;;-0.44;99.35;100835.94;5134710;27;20039;-81
2021/12/21 02:01:06;;;;;;;4.85;1.83;;;;;;;-0.41;100.00;100834.16;5135038;27;20051;-81
2021/12/21 02:03:35;;;;;;;5.53;2.05;;;;;;;-0.51;100.00;100834.22;5135019;27;20039;-79
2021/12/21 02:06:04;;;;;;;3.28;1.67;;;;;;;-0.52;99.61;100845.59;5135098;27;20118;-78
2021/12/21 02:08:35;;;;;;;3.92;1.73;;;;;;;-0.48;98.92;100836.81;5134343;27;20035;-78
2021/12/21 02:11:04;;;;;;;4.50;1.90;;;;;;;-0.49;99.32;100830.69;5134498;27;20043;-78
2021/12/21 02:13:36;;;;;;;4.25;1.90;;;;;;;-0.54;98.03;100829.00;5134233;27;20389;-78
2021/12/21 02:16:05;;;;;;;4.68;1.85;;;;;;;-0.51;98.11;100842.09;5134940;27;20068;-77
2021/12/21 02:18:47;;;;;;;4.70;2.17;;;;;;;-0.52;98.02;100835.97;5134426;27;20500;-76
2021/12/21 02:21:24;;;;;;;4.65;1.98;;;;;;;-0.48;97.13;100831.56;5134558;27;20051;-76
2021/12/21 02:23:56;;;;;;;4.15;1.92;;;;;;;-0.50;97.61;100838.56;5134935;27;20137;-76
2021/12/21 02:26:44;;;;;;;;;;;;;;;-0.47;96.68;100838.59;5134752;27;20039;-76
2021/12/21 02:29:16;;;;;;;3.97;1.80;;;;;;;-0.54;97.18;100842.97;5134657;27;20386;-76
2021/12/21 02:31:47;;;;;;;3.15;1.73;;;;;;;-0.59;97.50;100844.72;5134419;27;20039;-76
2021/12/21 02:34:17;;;;;;;3.13;1.77;;;;;;;-0.57;97.29;100840.38;5134569;27;20395;-80
2021/12/21 02:36:50;;;;;;;3.65;1.80;;;;;;;-0.60;97.86;100843.00;5134424;27;20121;-80
2021/12/21 02:39:19;;;;;;;4.73;2.23;;;;;;;-0.60;97.89;100840.38;5134566;27;20047;-80
2021/12/21 02:41:47;;;;;;;4.32;2.10;;;;;;;-0.69;98.04;100838.66;5134396;27;20442;-79
2021/12/21 02:44:16;;;;;;;3.92;1.88;;;;;;;-0.64;97.82;100842.16;5134427;27;20043;-79
2021/12/21 02:46:45;;;;;;;6.57;2.08;;;;;;;-0.68;98.16;100847.41;5134023;27;20039;-79
2021/12/21 02:49:14;;;;;;;3.67;1.80;;;;;;;-0.74;98.39;100850.06;5134335;27;20400;-77
2021/12/21 02:51:45;;;;;;;4.63;2.08;;;;;;;-0.82;98.40;100846.59;5134028;27;20464;-80
2021/12/21 02:54:18;;;;;;;6.82;2.22;;;;;;;-0.87;98.78;100864.94;5134341;27;20130;-85
2021/12/21 02:56:47;;;;;;;3.47;1.98;;;;;;;-0.79;97.75;100865.78;5134138;27;20039;-80
2021/12/21 02:59:15;;;;;;;4.80;1.70;;;;;;;-0.88;98.49;100863.22;5133673;27;20468;-82
2021/12/21 03:01:43;;;;;;;3.30;1.70;;;;;;;-0.80;97.95;100865.81;5133829;28;20373;-82
2021/12/21 03:04:12;;;;;;;4.55;2.00;;;;;;;-0.83;97.88;100871.94;5134188;27;20050;-84
2021/12/21 03:12:33;;;;;;;3.83;1.90;;;;;;;-0.96;99.17;100878.97;5128641;27;20051;-84
2021/12/21 03:15:01;;;;;;;4.13;1.83;;;;;;;-0.89;97.46;100872.81;5133926;28;20476;-84
2021/12/21 03:17:29;;;;;;;5.15;2.05;;;;;;;-1.01;98.44;100878.09;5133676;28;20043;-84
2021/12/21 03:19:58;;;;;;;6.45;2.00;;;;;;;-0.95;98.13;100877.22;5133856;28;20484;-83
2021/12/21 03:22:26;;;;;;;3.70;1.65;;;;;;;-1.07;98.48;100882.47;5133420;28;20051;-83
2021/12/21 03:24:55;;;;;;;3.58;1.83;;;;;;;-1.06;98.40;100877.25;5134192;28;20043;-83
2021/12/21 03:27:23;;;;;;;4.00;1.90;;;;;;;-1.03;98.20;100884.22;5133329;28;20051;-81
2021/12/21 03:29:52;;;;;;;4.13;1.90;;;;;;;-1.14;98.47;100873.78;5133778;28;20047;-83
2021/12/21 03:32:20;;;;;;;3.90;1.80;;;;;;;-1.06;98.35;100884.22;5133844;28;20043;-83
2021/12/21 03:34:51;;;;;;;5.88;2.20;;;;;;;-1.10;98.31;100878.13;5133588;28;20095;-83
2021/12/21 03:37:19;;;;;;;4.18;1.83;;;;;;;-1.11;98.56;100876.38;5133845;27;20472;-83
2021/12/21 03:39:50;;;;;;;3.53;1.77;;;;;;;-1.12;98.59;100890.34;5133153;28;20040;-83
2021/12/21 03:42:19;;;;;;;3.92;1.90;;;;;;;-1.10;98.28;100887.72;5133945;28;20047;-83
2021/12/21 03:44:48;;;;;;;4.43;1.63;;;;;;;-1.08;98.52;100896.44;5133475;28;20039;-83
2021/12/21 03:47:17;;;;;;;7.32;2.13;;;;;;;-1.25;99.16;100884.28;5133443;28;20075;-83
2021/12/21 03:49:55;;;;;;;4.30;1.92;;;;;;;-1.21;99.03;100896.47;5132963;27;20039;-81
2021/12/21 03:52:25;;;;;;;6.38;2.03;;;;;;;-1.32;99.42;100900.88;5133731;28;20411;-80
2021/12/21 03:54:55;;;;;;;5.97;2.00;;;;;;;-1.20;98.34;100910.44;5133484;28;20122;-80
2021/12/21 03:57:26;;;;;;;6.30;1.88;;;;;;;-1.18;97.92;100906.94;5133933;28;20043;-80
2021/12/21 03:59:55;;;;;;;3.92;1.75;;;;;;;-1.23;98.12;100911.31;5133977;28;20066;-80
2021/12/21 04:02:24;;;;;;;5.78;1.90;;;;;;;-1.26;98.30;100906.06;5132566;28;20073;-80
2021/12/21 04:04:56;;;;;;;5.15;1.92;;;;;;;-1.20;97.79;100906.06;5133537;28;20051;-80
2021/12/21 04:07:24;;;;;;;3.65;1.83;;;;;;;-1.37;98.63;100905.22;5133881;28;20068;-80
2021/12/21 04:09:53;;;;;;;3.45;2.00;;;;;;;-1.31;97.85;100914.81;5134192;27;20142;-79
2021/12/21 04:12:21;;;;;;;4.97;1.90;;;;;;;-1.32;97.99;100916.56;5137324;27;20035;-80
2021/12/21 04:14:52;;;;;;;4.80;1.90;;;;;;;-1.40;98.33;100915.69;5136921;27;20035;-78
2021/12/21 04:17:23;;;;;;;3.75;1.90;;;;;;;-1.33;98.17;100916.56;5137417;27;20088;-84
2021/12/21 04:19:52;;;;;;;3.03;1.70;;;;;;;-1.36;98.13;100935.75;5136660;27;20039;-83
2021/12/21 04:22:21;;;;;;;3.63;1.92;;;;;;;-1.41;99.20;100927.03;5137062;27;20055;-79
2021/12/21 04:24:49;;;;;;;3.92;1.83;;;;;;;-1.41;97.88;100932.28;5136920;27;20039;-82
2021/12/21 04:27:20;;;;;;;3.15;1.70;;;;;;;-1.44;98.37;100929.69;5136765;27;20040;-81
2021/12/21 04:29:48;;;;;;;3.35;1.75;;;;;;;-1.58;98.60;100920.94;5136413;27;20488;-84
2021/12/21 04:32:18;;;;;;;4.07;1.70;;;;;;;-1.36;97.21;100927.91;5136851;27;20042;-83
2021/12/21 04:34:46;;;;;;;4.43;1.95;;;;;;;-1.50;98.09;100934.91;5136549;27;20045;-83
2021/12/21 04:37:17;;;;;;;5.20;1.73;;;;;;;-1.47;97.68;100927.91;5137081;27;20043;-82
2021/12/21 04:39:51;;;;;;;3.28;1.58;;;;;;;-1.41;97.59;100945.38;5136584;27;20051;-81
2021/12/21 04:42:19;;;;;;;3.30;1.50;;;;;;;-1.40;96.73;100936.63;5136901;27;20047;-80
2021/12/21 04:44:48;;;;;;;3.85;1.52;;;;;;;-1.41;96.70;100945.38;5136066;27;20043;-79
2021/12/21 04:47:16;;;;;;;3.33;1.33;;;;;;;-1.39;96.46;100943.63;5136576;27;20373;-79
2021/12/21 04:49:45;;;;;;;2.15;1.35;;;;;;;-1.60;97.62;100948.84;5136195;27;20488;-79
2021/12/21 04:52:14;;;;;;;4.43;1.63;;;;;;;-1.49;96.99;100941.88;5136447;27;20054;-79
2021/12/21 04:54:42;;;;;;;2.88;1.40;;;;;;;-1.45;97.19;100943.59;5136124;27;20472;-81
2021/12/21 04:57:10;;;;;;;4.25;1.40;;;;;;;-1.62;97.29;100953.22;5136535;27;20043;-80
2021/12/21 04:59:38;;;;;;;4.32;1.77;;;;;;;-1.64;98.06;100942.75;5135593;27;20473;-78
2021/12/21 05:02:07;;;;;;;5.15;1.92;;;;;;;-1.78;98.49;100945.34;5136001;27;20066;-78
2021/12/21 05:04:38;;;;;;;7.65;2.10;;;;;;;-1.69;97.86;100954.06;5135846;27;20400;-79
2021/12/21 05:07:08;;;;;;;3.67;1.90;;;;;;;-1.79;98.40;100956.69;5136270;27;20039;-79
2021/12/21 05:09:43;;;;;;;5.20;1.90;;;;;;;-1.69;97.53;100969.78;5135455;27;20488;-78
2021/12/21 05:12:13;;;;;;;8.30;2.10;;;;;;;-1.95;99.33;100967.97;5136209;27;20095;-78
2021/12/21 05:14:41;;;;;;;3.58;1.77;;;;;;;-1.80;98.50;100962.78;5135508;27;20070;-77
2021/12/21 05:17:09;;;;;;;4.07;1.80;;;;;;;-1.62;97.85;100966.31;5136001;27;20037;-78
2021/12/21 05:19:38;;;;;;;6.00;2.15;;;;;;;-1.68;97.30;100972.38;5135673;27;20100;-77
2021/12/21 05:22:06;;;;;;;6.00;1.85;;;;;;;-1.76;97.84;100976.72;5134898;27;20042;-79
2021/12/21 05:24:36;;;;;;;4.72;2.13;;;;;;;-1.67;96.52;100983.72;5135549;27;20049;-80
2021/12/21 05:27:07;;;;;;;6.43;2.20;;;;;;;-1.52;96.22;100986.38;5135749;27;20039;-78
2021/12/21 05:29:35;;;;;;;5.13;2.05;;;;;;;-1.54;95.49;100996.84;5135040;27;20092;-79
2021/12/21 05:32:04;;;;;;;4.38;2.10;;;;;;;-1.54;95.50;100990.72;5135585;27;20479;-78
2021/12/21 05:34:33;;;;;;;6.10;2.15;;;;;;;-1.56;94.91;100987.22;5135130;27;20039;-81
2021/12/21 05:37:05;;;;;;;4.45;2.15;;;;;;;-1.68;96.60;100992.44;5135220;27;20043;-78
2021/12/21 05:39:41;;;;;;;6.32;2.30;;;;;;;-1.70;96.47;101000.28;5134983;27;20041;-80
2021/12/21 05:42:11;;;;;;;3.83;2.00;;;;;;;-1.63;96.25;100996.81;5135218;27;20039;-78
2021/12/21 05:44:39;;;;;;;4.25;1.88;;;;;;;-1.65;95.74;100998.53;5134983;27;20067;-79
2021/12/21 05:47:07;;;;;;;4.93;1.98;;;;;;;-1.68;95.57;101005.53;5137412;27;20046;-81
2021/12/21 05:49:35;;;;;;;4.60;1.83;;;;;;;-1.68;95.87;101008.13;5135426;27;20092;-80
2021/12/21 05:52:05;;;;;;;7.05;1.92;;;;;;;-1.81;96.28;100997.66;5133978;27;20047;-79
2021/12/21 05:54:33;;;;;;;4.90;1.90;;;;;;;-1.84;96.12;101005.47;5134842;27;20082;-83
2021/12/21 05:57:05;;;;;;;4.80;1.58;;;;;;;-1.73;96.00;101006.41;5135570;27;20543;-80
2021/12/21 05:59:34;;;;;;;5.40;2.15;;;;;;;-1.62;95.51;101010.78;5140239;27;20050;-80
2021/12/21 06:02:04;;;;;;;5.70;2.45;;;;;;;-1.81;96.19;101007.25;5135076;27;20039;-80
2021/12/21 06:04:32;;;;;;;5.30;1.92;;;;;;;-1.66;95.62;101016.84;5135450;27;20134;-79
2021/12/21 06:07:00;;;;;;;4.00;1.98;;;;;;;-1.73;95.04;101011.63;5135133;27;20062;-82
2021/12/21 06:09:30;;;;;;;5.88;1.98;;;;;;;-1.80;96.00;101009.88;5135178;27;20043;-83
2021/12/21 06:12:07;;;;;;;4.50;2.10;;;;;;;-1.60;94.88;101015.13;5142309;27;20040;-89
2021/12/21 06:23:14;;;;;;;6.65;2.42;;;;;;;-1.80;95.88;101025.56;5135270;27;20051;-86
2021/12/21 06:25:51;;;;;;;6.55;2.85;;;;;;;-1.88;96.93;101042.09;5134046;27;20035;-85
2021/12/21 06:28:19;;;;;;;7.22;2.20;;;;;;;-1.86;97.17;101041.22;5134630;27;20039;-85
2021/12/21 06:30:50;;;;;;;5.45;2.17;;;;;;;-1.66;95.42;101045.63;5133844;27;20050;-85
2021/12/21 06:33:19;;;;;;;4.70;2.20;;;;;;;-1.71;95.84;101044.75;5134432;27;20036;-79
2021/12/21 06:35:47;;;;;;;9.02;2.25;;;;;;;-1.64;94.44;101044.78;5134099;27;20043;-81
2021/12/21 06:38:16;;;;;;;6.40;2.60;;;;;;;-1.69;94.47;101032.56;5132972;27;20453;-79
2021/12/21 06:40:44;;;;;;;7.68;2.45;;;;;;;-1.65;93.63;101045.63;5133755;27;20050;-83
2021/12/21 06:43:16;;;;;;;6.38;2.55;;;;;;;-1.84;95.65;101047.31;5134647;27;20043;-80
2021/12/21 06:45:51;;;;;;;10.00;2.72;;;;;;;-1.66;94.16;101056.09;5133836;27;20061;-82
2021/12/21 06:51:19;;;;;;;4.97;2.05;;;;;;;-1.48;92.56;101064.84;5133852;27;20130;-81
2021/12/21 06:53:50;;;;;;;5.15;2.47;;;;;;;-1.50;92.64;101065.72;5133863;27;20070;-82
2021/12/21 06:56:25;;;;;;;4.82;2.17;;;;;;;-1.44;92.53;101068.38;5134236;27;20043;-81
2021/12/21 06:58:55;;;;;;;9.85;2.30;;;;;;;-1.46;92.51;101070.09;5133923;27;20377;-80
2021/12/21 07:01:25;;;;;;;7.35;2.22;;;;;;;-1.44;93.11;101070.97;5132806;27;20096;-80
2021/12/21 07:03:56;;;;;;;5.47;2.10;;;;;;;-1.36;92.87;101079.69;5133713;28;20139;-82
2021/12/21 07:06:25;;;;;;;4.55;2.08;;;;;;;-1.33;93.40;101074.50;5133927;28;20043;-80
2021/12/21 07:09:00;;;;;;;4.03;1.80;;;;;;;-1.32;93.83;101071.00;5133692;28;20062;-79
2021/12/21 07:11:39;;;;;;;5.88;2.25;;;;;;;-1.33;93.97;101068.38;5134073;28;20067;-81
2021/12/21 07:19:42;;;;;;;5.85;1.88;;;;;;;-1.38;95.00;101085.81;5134012;28;20397;-82
2021/12/21 07:22:10;;;;;;;4.53;2.08;;;;;;;-1.44;95.42;101086.69;5133454;28;20051;-82
2021/12/21 07:24:39;;;;;;;7.97;2.55;;;;;;;-1.35;95.46;101076.25;5133594;28;20043;-79
2021/12/21 07:27:07;;;;;;;4.03;2.13;;;;;;;-1.45;96.88;101087.53;5133338;28;20119;-80
2021/12/21 07:29:36;;;;;;;4.25;1.92;;;;;;;-1.32;95.30;101091.94;5133779;28;20054;-80
2021/12/21 07:32:04;;;;;;;4.97;2.30;;;;;;;-1.29;95.36;101086.69;5133127;27;20050;-78
2021/12/21 07:34:33;;;;;;;7.13;2.20;;;;;;;-1.25;94.67;101093.69;5133858;28;20043;-79
2021/12/21 07:37:05;;;;;;;5.97;2.00;;;;;;;-1.16;94.53;101096.34;5133430;28;20043;-79
2021/12/21 07:39:33;;;;;;;8.77;2.30;;;;;;;-1.11;94.14;101100.69;5133685;28;20457;-83
2021/12/21 07:42:17;;;;;;;6.10;2.15;;;;;;;-1.06;93.43;101097.22;5133703;27;20032;-82
2021/12/21 07:44:46;;;;;;;4.85;2.13;;;;;;;-1.07;93.83;101098.06;5133428;27;20043;-86
2021/12/21 07:47:15;;;;;;;7.43;2.40;;;;;;;-1.07;93.88;101102.41;5137460;27;20103;-83
2021/12/21 07:49:44;;;;;;;5.25;2.28;;;;;;;-1.04;94.00;101091.97;5137079;27;20091;-88
2021/12/21 07:52:15;;;;;;;5.30;2.22;;;;;;;-1.06;93.85;101085.84;5137836;27;20054;-87
2021/12/21 07:54:43;;;;;;;5.00;1.98;;;;;;;-0.95;93.53;101089.34;5137650;27;20499;-89
2021/12/21 07:57:12;;;;;;;6.93;2.25;;;;;;;-0.91;93.65;101088.47;5138060;27;20046;-87
2021/12/21 07:59:41;;;;;;;4.93;2.10;;;;;;;-0.96;94.34;101105.94;5138007;27;20046;-84
2021/12/21 08:02:12;;;;;;;3.30;1.50;;;;;;;-0.94;93.88;101096.34;5137324;27;20039;-83
2021/12/21 08:04:41;;;;;;;4.97;2.03;;;;;;;-0.83;93.76;101096.34;5137184;27;20080;-78
2021/12/21 08:07:14;;;;;;;6.28;2.35;;;;;;;-0.87;93.21;101092.81;5137471;27;20047;-78
2021/12/21 08:09:47;;;;;;;5.13;2.37;;;;;;;-0.81;93.74;101105.94;5136935;27;20092;-78
2021/12/21 08:12:18;;;;;;;4.75;1.98;;;;;;;-0.83;94.18;101112.91;5137368;27;20392;-80
2021/12/21 08:14:49;;;;;;;5.13;2.50;;;;;;;-0.84;94.28;101105.94;5135579;27;20134;-82
2021/12/21 08:17:18;;;;;;;4.30;1.95;;;;;;;-0.75;93.60;101116.41;5136801;27;20130;-81
2021/12/21 08:19:48;;;;;;;5.60;2.10;;;;;;;-0.75;92.97;101100.69;5136567;27;20071;-81
2021/12/21 08:22:16;;;;;;;7.13;2.50;;;;;;;-0.78;94.26;101115.53;5137273;27;20051;-79
2021/12/21 08:24:46;;;;;;;7.72;2.67;;;;;;;-0.67;93.66;101121.66;5136849;27;20078;-82
2021/12/21 08:27:14;;;;;;;5.07;2.38;;;;;;;-0.66;93.16;101111.19;5136862;27;20043;-80
2021/12/21 08:29:43;;;;;;;8.00;2.80;;;;;;;-0.61;93.47;101112.03;5137182;27;20051;-88
2021/12/21 08:32:11;;;;;;;5.03;2.10;;;;;;;-0.55;92.62;101113.78;5136413;27;20047;-79
2021/12/21 08:34:39;;;;;;;5.47;2.50;;;;;;;-0.57;92.95;101123.41;5136652;27;20039;-78
2021/12/21 08:37:08;;;;;;;5.55;2.20;;;;;;;-0.46;92.70;101119.00;5136514;27;20045;-70
2021/12/21 08:39:39;;;;;;;5.82;2.28;;;;;;;-0.44;92.63;101111.16;5136520;27;20050;-71
2021/12/21 08:42:13;;;;;;;4.82;2.00;;;;;;;-0.29;91.96;101116.34;5136913;27;20043;-71
2021/12/21 08:44:41;;;;;;;7.00;2.33;;;;;;;-0.23;91.42;101125.94;5138465;27;20043;-71
2021/12/21 08:47:10;;;;;;;4.95;2.05;;;;;;;-0.22;91.28;101127.69;5135452;27;20055;-77
2021/12/21 08:49:42;;;;;;;5.28;2.45;;;;;;;-0.20;92.48;101121.56;5136573;27;20117;-77
2021/12/21 08:52:11;;;;;;;6.53;2.75;;;;;;;-0.17;92.88;101118.97;5136209;27;20116;-78
2021/12/21 08:54:39;;;;;;;6.72;2.60;;;;;;;-0.19;93.87;101125.06;5136461;27;20092;-76
2021/12/21 08:57:11;;;;;;;6.88;2.40;;;;;;;-0.15;94.17;101132.94;5135012;27;20166;-75
2021/12/21 08:59:40;;;;;;;5.70;2.70;;;;;;;-0.24;95.32;101138.19;5135140;27;20070;-77
2021/12/21 09:02:08;;;;;;;6.43;2.58;;;;;;;-0.19;95.29;101133.81;5135732;27;20035;-75
2021/12/21 09:04:36;;;;;;;5.72;2.20;;;;;;;-0.15;95.85;101140.78;5134226;27;20043;-75
2021/12/21 09:07:07;;;;;;;6.10;2.10;;;;;;;-0.11;96.02;101137.28;5135493;27;20043;-78
2021/12/21 09:09:36;;;;;;;8.55;2.60;;;;;;;-0.16;95.54;101133.81;5135402;27;20046;-77
2021/12/21 09:12:04;;;;;;;8.55;2.90;;;;;;;-0.14;96.80;101137.28;5135100;27;20086;-78
2021/12/21 09:14:34;;;;;;;6.95;2.97;;;;;;;-0.07;96.26;101138.16;5135730;27;20051;-77
2021/12/21 09:17:03;;;;;;;6.97;2.83;;;;;;;-0.15;97.02;101132.94;5131592;27;20043;-72
2021/12/21 09:19:32;;;;;;;6.80;2.70;;;;;;;-0.19;97.70;101144.31;5132816;27;20212;-73
2021/12/21 09:22:01;;;;;;;8.25;2.90;;;;;;;0.01;96.91;101133.78;5134890;27;20043;-72
2021/12/21 09:24:30;;;;;;;2.35;1.40;;;;;;;-0.01;96.55;101128.50;5134989;27;20121;-72
2021/12/21 09:26:58;;;;;;;6.05;2.70;;;;;;;-0.05;97.26;101136.41;5134887;27;20043;-73
2021/12/21 09:29:27;;;;;;;5.18;2.78;;;;;;;0.04;97.23;101128.50;5134902;27;20047;-73
2021/12/21 09:31:56;;;;;;;6.57;2.67;;;;;;;0.07;96.73;101119.75;5134854;27;20122;-74
2021/12/21 09:34:24;;;;;;;4.63;2.45;;;;;;;0.07;97.14;101125.00;5134650;27;20104;-74
2021/12/21 09:36:53;;;;;;;5.65;2.58;;;;;;;0.09;96.41;101133.72;5134726;27;20420;-76
2021/12/21 09:39:21;;;;;;;4.90;1.92;;;;;;;0.15;96.37;101131.09;5134972;27;20043;-70
2021/12/21 09:41:50;;;;;;;6.95;2.65;;;;;;;0.14;97.10;101131.97;5134926;27;20039;-70
2021/12/21 09:44:18;;;;;;;7.20;2.72;;;;;;;0.24;96.58;101125.81;5134020;27;20088;-69
2021/12/21 09:46:46;;;;;;;4.70;2.30;;;;;;;0.30;96.25;101123.16;5134644;27;20043;-70
2021/12/21 09:49:16;;;;;;;7.30;3.20;;;;;;;0.36;96.26;101128.38;5134626;27;20039;-72
2021/12/21 09:51:44;;;;;;;8.50;3.08;;;;;;;0.32;96.25;101137.16;5134692;27;20043;-75
2021/12/21 09:54:17;;;;;;;5.05;2.38;;;;;;;0.32;97.78;101124.03;5133673;27;20156;-73
2021/12/21 09:56:46;;;;;;;6.82;3.10;;;;;;;0.36;98.69;101131.00;5134513;27;20480;-70
2021/12/21 09:59:14;;;;;;;7.70;2.75;;;;;;;0.38;99.49;101118.72;5134473;27;20506;-71
2021/12/21 10:01:45;;;;;;;9.02;3.00;;;;;;;0.48;99.81;101102.09;5135544;27;20043;-73
2021/12/21 10:04:13;;;;;;;7.95;3.30;;;;;;;0.53;99.52;101109.91;5135318;27;20100;-72
2021/12/21 10:06:48;;;;;;;6.75;3.15;;;;;;;0.56;99.34;101102.88;5135478;27;20039;-79
2021/12/21 10:09:18;;;;;;;;;;;;;;;0.59;99.68;101104.66;5134146;27;20039;-75
2021/12/21 10:12:05;;;;;;;4.18;2.35;;;;;;;0.62;100.00;101098.50;5134058;27;19919;-78
2021/12/21 10:14:33;;;;;;;7.50;3.25;;;;;;;0.71;100.00;101116.81;5133910;27;20047;-71
2021/12/21 10:17:04;;;;;;;5.97;2.78;;;;;;;0.62;100.00;101103.75;5133706;27;20046;-73
2021/12/21 10:19:33;;;;;;;5.93;3.00;;;;;;;0.69;100.00;101095.84;5134034;27;20043;-71
2021/12/21 10:22:10;;;;;;;7.00;3.15;;;;;;;0.72;100.00;101090.56;5132173;27;20088;-73
2021/12/21 10:24:46;;;;;;;7.25;3.42;;;;;;;0.82;100.00;101092.22;5133890;27;20407;-71
2021/12/21 10:27:18;;;;;;;7.65;3.60;;;;;;;0.80;100.00;101099.25;5133788;27;20127;-75
2021/12/21 10:29:47;;;;;;;5.78;3.28;;;;;;;0.74;100.00;101093.16;5133953;27;20050;-76
2021/12/21 10:32:21;;;;;;;8.90;3.35;;;;;;;0.77;100.00;101087.88;5133327;27;20497;-75
2021/12/21 10:35:03;;;;;;;8.27;3.30;;;;;;;0.88;100.00;101090.47;5134116;27;20043;-76
2021/12/21 10:37:35;;;;;;;7.07;3.67;;;;;;;0.74;100.00;101087.91;5133804;27;20042;-76
2021/12/21 10:40:22;;;;;;;7.30;3.42;;;;;;;0.80;100.00;101080.00;5134765;27;20092;-76
2021/12/21 10:42:54;;;;;;;7.38;3.25;;;;;;;0.87;100.00;101076.44;5133832;27;20092;-76
2021/12/21 10:45:29;;;;;;;8.65;3.53;;;;;;;0.85;100.00;101070.31;5133786;27;20062;-76
2021/12/21 10:48:00;;;;;;;3.67;2.15;;;;;;;0.90;99.91;101059.78;5133662;27;20450;-76
2021/12/21 10:50:29;;;;;;;10.38;3.38;;;;;;;0.90;99.99;101081.66;5133749;27;20043;-76
2021/12/21 10:53:01;;;;;;;8.00;3.47;;;;;;;0.88;99.59;101059.81;5133694;27;20129;-71
2021/12/21 10:55:32;;;;;;;10.57;4.00;;;;;;;0.97;100.00;101064.13;5133564;27;20093;-82
2021/12/21 10:58:11;;;;;;;7.38;3.72;;;;;;;1.03;100.00;101059.66;5138324;27;20149;-78
2021/12/21 11:00:44;;;;;;;8.85;3.50;;;;;;;1.01;100.00;101061.44;5130817;27;20042;-77
2021/12/21 11:03:16;;;;;;;6.35;3.03;;;;;;;1.04;99.43;101053.53;5139851;27;20039;-78
2021/12/21 11:05:46;;;;;;;6.17;2.93;;;;;;;1.05;98.88;101052.63;5139461;27;20171;-79
2021/12/21 11:08:27;;;;;;;7.32;3.88;;;;;;;1.02;99.36;101051.81;5148079;27;20893;-73
2021/12/21 11:10:59;;;;;;;7.80;3.60;;;;;;;1.10;98.88;101058.75;5144553;27;20058;-74
2021/12/21 11:13:27;;;;;;;5.88;3.63;;;;;;;1.13;98.31;101053.44;5137780;27;20549;-75
2021/12/21 11:15:57;;;;;;;8.75;3.90;;;;;;;1.15;98.29;101054.28;5150208;27;20039;-77
2021/12/21 11:18:27;;;;;;;7.85;4.18;;;;;;;1.13;98.34;101044.69;5146249;27;20047;-73
2021/12/21 11:20:57;;;;;;;6.07;3.35;;;;;;;1.08;97.22;101050.00;5146605;27;20047;-72
2021/12/21 11:23:29;;;;;;;6.60;3.45;;;;;;;1.09;98.28;101033.34;5141410;27;20122;-70
2021/12/21 11:25:58;;;;;;;7.97;4.03;;;;;;;1.07;98.71;101027.25;5154516;27;20039;-73
2021/12/21 11:28:35;;;;;;;8.60;4.78;;;;;;;1.07;99.45;101029.00;5144674;27;20134;-73
2021/12/21 11:31:08;;;;;;;6.57;2.85;;;;;;;1.18;99.36;101028.91;5145341;27;20066;-76
2021/12/21 11:33:42;;;;;;;5.03;2.67;;;;;;;1.17;98.54;101035.91;5153887;27;20119;-73
2021/12/21 11:39:03;;;;;;;7.32;3.22;;;;;;;1.27;98.53;101023.56;5145815;27;20047;-76
2021/12/21 11:41:34;;;;;;;7.38;4.50;;;;;;;1.28;98.96;101030.56;5153782;27;20584;-77
2021/12/21 11:44:10;;;;;;;9.30;4.63;;;;;;;1.31;98.22;101028.75;5123460;27;20043;-80
2021/12/21 11:46:51;;;;;;;7.45;4.28;;;;;;;1.32;98.99;101029.63;5154884;27;20483;-74
2021/12/21 11:49:27;;;;;;;6.68;3.53;;;;;;;1.33;98.47;101031.34;5142289;27;20041;-72
2021/12/21 11:52:06;;;;;;;6.28;3.50;;;;;;;1.34;97.58;101014.69;5153594;27;20049;-70
2021/12/21 11:54:45;;;;;;;8.65;3.60;;;;;;;1.31;96.41;101025.25;5145060;27;20041;-72
2021/12/21 11:57:15;;;;;;;5.03;2.85;;;;;;;1.33;96.30;101028.72;5142955;27;20116;-70
2021/12/21 11:59:43;;;;;;;7.70;4.00;;;;;;;1.40;96.80;101022.53;5153336;27;20616;-72
2021/12/21 12:02:12;;;;;;;8.43;4.03;;;;;;;1.37;97.06;101017.31;5141431;27;20039;-69
2021/12/21 12:04:41;;;;;;;8.60;4.32;;;;;;;1.42;97.07;101023.38;5147531;27;20126;-78
2021/12/21 12:07:19;;;;;;;11.93;4.13;;;;;;;1.41;97.34;101019.00;5149320;27;20035;-73
2021/12/21 12:10:06;;;;;;;11.63;5.10;;;;;;;1.40;97.85;101007.63;5139885;27;20507;-73
2021/12/21 12:12:35;;;;;;;8.05;4.38;;;;;;;1.40;98.09;101012.00;5148723;27;20066;-73
2021/12/21 12:15:07;;;;;;;8.43;3.97;;;;;;;1.42;97.98;101010.25;5148917;27;20046;-76
2021/12/21 12:17:46;;;;;;;6.53;3.63;;;;;;;1.35;98.19;101016.44;5156798;27;20045;-73
2021/12/21 12:20:15;;;;;;;10.80;3.17;;;;;;;1.34;97.58;101012.06;5153222;27;20115;-79
2021/12/21 12:22:46;;;;;;;5.75;3.55;;;;;;;1.34;97.35;101022.59;5136033;27;20080;-74
2021/12/21 12:25:19;;;;;;;4.95;2.67;;;;;;;1.22;97.03;101009.56;5149869;27;20039;-75
2021/12/21 12:27:53;;;;;;;6.88;3.03;;;;;;;1.22;97.25;101017.47;5139706;27;20054;-78